sensor_id;sensor_type;location;lat;lon;timestamp;P1;durP1;ratioP1;P2;durP2;ratioP2
52934;SDS011;38802;50.198;19.796;2023-06-22T00:00:32;10.30;;;7.60;;
52934;SDS011;38802;50.198;19.796;2023-06-22T00:03:21;12.70;;;8.90;;
52934;SDS011;38802;50.198;19.796;2023-06-22T00:05:52;10.40;;;8.80;;
52934;SDS011;38802;50.198;19.796;2023-06-22T00:08:20;13.70;;;10.40;;
52934;SDS011;38802;50.198;19.796;2023-06-22T00:10:48;13.70;;;9.70;;
52934;SDS011;38802;50.198;19.796;2023-06-22T00:13:16;12.60;;;9.50;;
52934;SDS011;38802;50.198;19.796;2023-06-22T00:15:45;13.50;;;11.10;;
52934;SDS011;38802;50.198;19.796;2023-06-22T00:18:14;12.40;;;11.20;;
52934;SDS011;38802;50.198;19.796;2023-06-22T00:20:43;14.30;;;11.10;;
52934;SDS011;38802;50.198;19.796;2023-06-22T00:23:13;13.90;;;11.00;;
52934;SDS011;38802;50.198;19.796;2023-06-22T00:25:43;16.40;;;11.00;;
52934;SDS011;38802;50.198;19.796;2023-06-22T00:28:11;15.60;;;12.10;;
52934;SDS011;38802;50.198;19.796;2023-06-22T00:30:39;13.00;;;11.40;;
52934;SDS011;38802;50.198;19.796;2023-06-22T00:33:07;17.00;;;11.90;;
52934;SDS011;38802;50.198;19.796;2023-06-22T00:35:35;19.60;;;10.60;;
52934;SDS011;38802;50.198;19.796;2023-06-22T00:38:04;15.80;;;11.40;;
52934;SDS011;38802;50.198;19.796;2023-06-22T00:40:32;14.30;;;10.70;;
52934;SDS011;38802;50.198;19.796;2023-06-22T00:43:02;14.70;;;11.20;;
52934;SDS011;38802;50.198;19.796;2023-06-22T00:45:31;14.30;;;10.60;;
52934;SDS011;38802;50.198;19.796;2023-06-22T00:47:59;15.30;;;10.70;;
52934;SDS011;38802;50.198;19.796;2023-06-22T00:50:29;14.00;;;11.00;;
52934;SDS011;38802;50.198;19.796;2023-06-22T00:53:03;13.50;;;10.90;;
52934;SDS011;38802;50.198;19.796;2023-06-22T00:55:37;18.10;;;11.50;;
52934;SDS011;38802;50.198;19.796;2023-06-22T00:58:11;14.20;;;11.10;;
52934;SDS011;38802;50.198;19.796;2023-06-22T01:00:41;15.30;;;11.20;;
52934;SDS011;38802;50.198;19.796;2023-06-22T01:03:10;11.50;;;10.40;;
52934;SDS011;38802;50.198;19.796;2023-06-22T01:05:39;15.90;;;10.80;;
52934;SDS011;38802;50.198;19.796;2023-06-22T01:13:30;18.10;;;10.50;;
52934;SDS011;38802;50.198;19.796;2023-06-22T01:16:07;10.40;;;9.40;;
52934;SDS011;38802;50.198;19.796;2023-06-22T01:18:40;17.10;;;10.50;;
52934;SDS011;38802;50.198;19.796;2023-06-22T01:21:12;10.80;;;9.40;;
52934;SDS011;38802;50.198;19.796;2023-06-22T01:23:50;11.30;;;8.60;;
52934;SDS011;38802;50.198;19.796;2023-06-22T01:29:19;11.50;;;7.40;;
52934;SDS011;38802;50.198;19.796;2023-06-22T01:31:50;10.40;;;7.30;;
52934;SDS011;38802;50.198;19.796;2023-06-22T01:34:20;12.10;;;7.30;;
52934;SDS011;38802;50.198;19.796;2023-06-22T01:36:50;15.70;;;6.30;;
52934;SDS011;38802;50.198;19.796;2023-06-22T01:39:19;7.50;;;5.20;;
52934;SDS011;38802;50.198;19.796;2023-06-22T01:41:51;6.40;;;4.60;;
52934;SDS011;38802;50.198;19.796;2023-06-22T01:44:21;6.40;;;5.00;;
52934;SDS011;38802;50.198;19.796;2023-06-22T01:46:50;10.50;;;5.00;;
52934;SDS011;38802;50.198;19.796;2023-06-22T01:49:21;7.80;;;4.80;;
52934;SDS011;38802;50.198;19.796;2023-06-22T01:51:50;9.30;;;4.90;;
52934;SDS011;38802;50.198;19.796;2023-06-22T01:54:19;11.00;;;4.70;;
52934;SDS011;38802;50.198;19.796;2023-06-22T01:56:47;9.80;;;5.10;;
52934;SDS011;38802;50.198;19.796;2023-06-22T01:59:21;8.60;;;4.90;;
52934;SDS011;38802;50.198;19.796;2023-06-22T02:02:16;10.50;;;4.90;;
52934;SDS011;38802;50.198;19.796;2023-06-22T02:04:51;8.60;;;4.80;;
52934;SDS011;38802;50.198;19.796;2023-06-22T02:07:32;8.10;;;4.60;;
52934;SDS011;38802;50.198;19.796;2023-06-22T02:10:05;9.10;;;5.10;;
52934;SDS011;38802;50.198;19.796;2023-06-22T02:12:35;8.40;;;5.10;;
52934;SDS011;38802;50.198;19.796;2023-06-22T02:15:05;11.00;;;4.80;;
52934;SDS011;38802;50.198;19.796;2023-06-22T02:17:35;9.10;;;4.80;;
52934;SDS011;38802;50.198;19.796;2023-06-22T02:20:03;10.50;;;4.50;;
52934;SDS011;38802;50.198;19.796;2023-06-22T02:22:36;11.00;;;5.30;;
52934;SDS011;38802;50.198;19.796;2023-06-22T02:25:04;9.10;;;5.40;;
52934;SDS011;38802;50.198;19.796;2023-06-22T02:27:32;7.00;;;4.40;;
52934;SDS011;38802;50.198;19.796;2023-06-22T02:30:01;8.80;;;4.80;;
52934;SDS011;38802;50.198;19.796;2023-06-22T02:32:29;7.10;;;4.50;;
52934;SDS011;38802;50.198;19.796;2023-06-22T02:34:58;9.60;;;5.00;;
52934;SDS011;38802;50.198;19.796;2023-06-22T02:37:26;9.10;;;4.60;;
52934;SDS011;38802;50.198;19.796;2023-06-22T02:39:57;8.60;;;4.90;;
52934;SDS011;38802;50.198;19.796;2023-06-22T02:42:25;15.50;;;5.30;;
52934;SDS011;38802;50.198;19.796;2023-06-22T02:44:53;6.10;;;4.80;;
52934;SDS011;38802;50.198;19.796;2023-06-22T02:47:21;7.20;;;4.90;;
52934;SDS011;38802;50.198;19.796;2023-06-22T02:49:49;9.20;;;4.80;;
52934;SDS011;38802;50.198;19.796;2023-06-22T02:52:17;8.30;;;5.60;;
52934;SDS011;38802;50.198;19.796;2023-06-22T02:54:45;9.90;;;5.50;;
52934;SDS011;38802;50.198;19.796;2023-06-22T02:57:14;8.60;;;5.50;;
52934;SDS011;38802;50.198;19.796;2023-06-22T02:59:43;8.80;;;5.60;;
52934;SDS011;38802;50.198;19.796;2023-06-22T03:02:12;13.60;;;5.50;;
52934;SDS011;38802;50.198;19.796;2023-06-22T03:04:41;11.00;;;5.50;;
52934;SDS011;38802;50.198;19.796;2023-06-22T03:07:10;11.00;;;5.10;;
52934;SDS011;38802;50.198;19.796;2023-06-22T03:09:38;13.20;;;5.60;;
52934;SDS011;38802;50.198;19.796;2023-06-22T03:12:06;13.70;;;5.40;;
52934;SDS011;38802;50.198;19.796;2023-06-22T03:14:45;10.70;;;5.70;;
52934;SDS011;38802;50.198;19.796;2023-06-22T03:17:15;10.40;;;5.90;;
52934;SDS011;38802;50.198;19.796;2023-06-22T03:19:43;14.40;;;6.10;;
52934;SDS011;38802;50.198;19.796;2023-06-22T03:22:11;9.40;;;5.60;;
52934;SDS011;38802;50.198;19.796;2023-06-22T03:24:41;9.40;;;6.10;;
52934;SDS011;38802;50.198;19.796;2023-06-22T03:27:09;11.90;;;6.10;;
52934;SDS011;38802;50.198;19.796;2023-06-22T03:29:37;10.90;;;6.20;;
52934;SDS011;38802;50.198;19.796;2023-06-22T03:32:05;7.40;;;6.60;;
52934;SDS011;38802;50.198;19.796;2023-06-22T03:34:34;8.70;;;6.20;;
52934;SDS011;38802;50.198;19.796;2023-06-22T03:37:06;10.50;;;6.30;;
52934;SDS011;38802;50.198;19.796;2023-06-22T03:39:34;15.00;;;6.20;;
52934;SDS011;38802;50.198;19.796;2023-06-22T03:42:03;9.40;;;6.70;;
52934;SDS011;38802;50.198;19.796;2023-06-22T03:44:32;10.00;;;6.60;;
52934;SDS011;38802;50.198;19.796;2023-06-22T03:47:00;10.60;;;6.70;;
52934;SDS011;38802;50.198;19.796;2023-06-22T03:49:29;11.90;;;6.70;;
52934;SDS011;38802;50.198;19.796;2023-06-22T03:51:57;13.40;;;7.60;;
52934;SDS011;38802;50.198;19.796;2023-06-22T03:54:25;12.00;;;7.10;;
52934;SDS011;38802;50.198;19.796;2023-06-22T03:56:54;13.10;;;8.10;;
52934;SDS011;38802;50.198;19.796;2023-06-22T03:59:22;13.90;;;8.10;;
52934;SDS011;38802;50.198;19.796;2023-06-22T04:01:50;14.70;;;8.80;;
52934;SDS011;38802;50.198;19.796;2023-06-22T04:04:19;14.70;;;8.00;;
52934;SDS011;38802;50.198;19.796;2023-06-22T04:06:47;14.30;;;8.30;;
52934;SDS011;38802;50.198;19.796;2023-06-22T04:09:15;17.50;;;9.20;;
52934;SDS011;38802;50.198;19.796;2023-06-22T04:11:44;11.90;;;7.60;;
52934;SDS011;38802;50.198;19.796;2023-06-22T04:14:12;16.30;;;8.80;;
52934;SDS011;38802;50.198;19.796;2023-06-22T04:16:40;12.10;;;9.80;;
52934;SDS011;38802;50.198;19.796;2023-06-22T04:19:08;18.30;;;10.90;;
52934;SDS011;38802;50.198;19.796;2023-06-22T04:21:46;21.70;;;11.80;;
52934;SDS011;38802;50.198;19.796;2023-06-22T04:24:16;22.40;;;13.30;;
52934;SDS011;38802;50.198;19.796;2023-06-22T04:26:45;22.10;;;13.20;;
52934;SDS011;38802;50.198;19.796;2023-06-22T04:29:14;21.90;;;13.70;;
52934;SDS011;38802;50.198;19.796;2023-06-22T04:31:42;19.20;;;13.00;;
52934;SDS011;38802;50.198;19.796;2023-06-22T04:34:10;20.80;;;12.20;;
52934;SDS011;38802;50.198;19.796;2023-06-22T04:36:39;26.60;;;13.50;;
52934;SDS011;38802;50.198;19.796;2023-06-22T04:39:10;16.20;;;13.80;;
52934;SDS011;38802;50.198;19.796;2023-06-22T04:41:39;18.60;;;12.20;;
52934;SDS011;38802;50.198;19.796;2023-06-22T04:44:15;21.10;;;13.80;;
52934;SDS011;38802;50.198;19.796;2023-06-22T04:46:56;18.20;;;14.60;;
52934;SDS011;38802;50.198;19.796;2023-06-22T04:49:31;25.30;;;13.40;;
52934;SDS011;38802;50.198;19.796;2023-06-22T04:52:08;17.60;;;12.60;;
52934;SDS011;38802;50.198;19.796;2023-06-22T04:54:38;20.50;;;12.30;;
52934;SDS011;38802;50.198;19.796;2023-06-22T04:57:15;23.10;;;12.90;;
52934;SDS011;38802;50.198;19.796;2023-06-22T04:59:43;19.90;;;13.70;;
52934;SDS011;38802;50.198;19.796;2023-06-22T05:02:12;24.60;;;14.90;;
52934;SDS011;38802;50.198;19.796;2023-06-22T05:04:40;23.00;;;14.70;;
52934;SDS011;38802;50.198;19.796;2023-06-22T05:07:08;30.10;;;15.00;;
52934;SDS011;38802;50.198;19.796;2023-06-22T05:09:37;26.60;;;16.00;;
52934;SDS011;38802;50.198;19.796;2023-06-22T05:12:05;22.50;;;15.30;;
52934;SDS011;38802;50.198;19.796;2023-06-22T05:14:38;25.10;;;18.10;;
52934;SDS011;38802;50.198;19.796;2023-06-22T05:17:06;24.40;;;17.20;;
52934;SDS011;38802;50.198;19.796;2023-06-22T05:19:44;32.30;;;20.20;;
52934;SDS011;38802;50.198;19.796;2023-06-22T05:22:16;32.00;;;18.90;;
52934;SDS011;38802;50.198;19.796;2023-06-22T05:24:44;36.00;;;19.70;;
52934;SDS011;38802;50.198;19.796;2023-06-22T05:27:12;35.60;;;20.10;;
52934;SDS011;38802;50.198;19.796;2023-06-22T05:29:41;28.10;;;18.90;;
52934;SDS011;38802;50.198;19.796;2023-06-22T05:32:10;30.50;;;19.20;;
52934;SDS011;38802;50.198;19.796;2023-06-22T05:34:38;34.70;;;21.80;;
52934;SDS011;38802;50.198;19.796;2023-06-22T05:37:06;33.00;;;22.00;;
52934;SDS011;38802;50.198;19.796;2023-06-22T05:39:37;31.40;;;20.40;;
52934;SDS011;38802;50.198;19.796;2023-06-22T05:42:05;30.10;;;20.10;;
52934;SDS011;38802;50.198;19.796;2023-06-22T05:44:37;34.60;;;21.00;;
52934;SDS011;38802;50.198;19.796;2023-06-22T05:47:07;34.40;;;22.40;;
52934;SDS011;38802;50.198;19.796;2023-06-22T05:49:35;31.00;;;20.30;;
52934;SDS011;38802;50.198;19.796;2023-06-22T05:52:03;43.50;;;20.80;;
52934;SDS011;38802;50.198;19.796;2023-06-22T05:54:31;27.90;;;21.60;;
52934;SDS011;38802;50.198;19.796;2023-06-22T05:56:59;30.80;;;22.90;;
52934;SDS011;38802;50.198;19.796;2023-06-22T05:59:27;34.40;;;22.20;;
52934;SDS011;38802;50.198;19.796;2023-06-22T06:01:55;30.00;;;24.20;;
52934;SDS011;38802;50.198;19.796;2023-06-22T06:04:23;33.30;;;23.90;;
52934;SDS011;38802;50.198;19.796;2023-06-22T06:06:52;31.70;;;24.50;;
52934;SDS011;38802;50.198;19.796;2023-06-22T06:09:20;41.30;;;28.40;;
52934;SDS011;38802;50.198;19.796;2023-06-22T06:11:48;38.80;;;27.30;;
52934;SDS011;38802;50.198;19.796;2023-06-22T06:14:16;43.10;;;26.20;;
52934;SDS011;38802;50.198;19.796;2023-06-22T06:16:44;36.40;;;29.00;;
52934;SDS011;38802;50.198;19.796;2023-06-22T06:19:12;37.60;;;29.30;;
52934;SDS011;38802;50.198;19.796;2023-06-22T06:21:40;39.10;;;28.40;;
52934;SDS011;38802;50.198;19.796;2023-06-22T06:24:09;39.00;;;28.80;;
52934;SDS011;38802;50.198;19.796;2023-06-22T06:26:37;39.10;;;28.80;;
52934;SDS011;38802;50.198;19.796;2023-06-22T06:29:06;37.40;;;31.00;;
52934;SDS011;38802;50.198;19.796;2023-06-22T06:31:34;37.30;;;26.30;;
52934;SDS011;38802;50.198;19.796;2023-06-22T06:34:03;36.50;;;27.10;;
52934;SDS011;38802;50.198;19.796;2023-06-22T06:36:32;31.60;;;25.70;;
52934;SDS011;38802;50.198;19.796;2023-06-22T06:39:00;37.60;;;28.30;;
52934;SDS011;38802;50.198;19.796;2023-06-22T06:41:28;29.90;;;23.80;;
52934;SDS011;38802;50.198;19.796;2023-06-22T06:43:56;27.90;;;23.60;;
52934;SDS011;38802;50.198;19.796;2023-06-22T06:46:24;30.40;;;23.80;;
52934;SDS011;38802;50.198;19.796;2023-06-22T06:48:52;27.30;;;22.50;;
52934;SDS011;38802;50.198;19.796;2023-06-22T06:51:20;31.30;;;24.30;;
52934;SDS011;38802;50.198;19.796;2023-06-22T06:53:48;25.90;;;23.00;;
52934;SDS011;38802;50.198;19.796;2023-06-22T06:56:16;29.80;;;23.50;;
52934;SDS011;38802;50.198;19.796;2023-06-22T06:58:44;24.30;;;21.90;;
52934;SDS011;38802;50.198;19.796;2023-06-22T07:01:13;24.90;;;21.50;;
52934;SDS011;38802;50.198;19.796;2023-06-22T07:03:41;23.20;;;20.70;;
52934;SDS011;38802;50.198;19.796;2023-06-22T07:06:09;24.10;;;21.70;;
52934;SDS011;38802;50.198;19.796;2023-06-22T07:08:38;21.40;;;19.50;;
52934;SDS011;38802;50.198;19.796;2023-06-22T07:11:07;21.80;;;19.70;;
52934;SDS011;38802;50.198;19.796;2023-06-22T07:13:35;22.90;;;20.50;;
52934;SDS011;38802;50.198;19.796;2023-06-22T07:16:03;22.50;;;20.40;;
52934;SDS011;38802;50.198;19.796;2023-06-22T07:18:32;22.60;;;20.40;;
52934;SDS011;38802;50.198;19.796;2023-06-22T07:21:00;21.40;;;19.40;;
52934;SDS011;38802;50.198;19.796;2023-06-22T07:23:28;20.90;;;18.40;;
52934;SDS011;38802;50.198;19.796;2023-06-22T07:25:56;19.80;;;17.80;;
52934;SDS011;38802;50.198;19.796;2023-06-22T07:28:24;18.60;;;16.80;;
52934;SDS011;38802;50.198;19.796;2023-06-22T07:30:52;20.50;;;16.70;;
52934;SDS011;38802;50.198;19.796;2023-06-22T07:33:20;19.20;;;17.30;;
52934;SDS011;38802;50.198;19.796;2023-06-22T07:35:48;17.10;;;15.60;;
52934;SDS011;38802;50.198;19.796;2023-06-22T07:38:16;17.50;;;15.80;;
52934;SDS011;38802;50.198;19.796;2023-06-22T07:40:44;17.20;;;15.70;;
52934;SDS011;38802;50.198;19.796;2023-06-22T07:43:12;16.50;;;15.20;;
52934;SDS011;38802;50.198;19.796;2023-06-22T07:45:40;16.70;;;15.20;;
52934;SDS011;38802;50.198;19.796;2023-06-22T07:48:09;16.60;;;15.20;;
52934;SDS011;38802;50.198;19.796;2023-06-22T07:50:37;15.80;;;14.30;;
52934;SDS011;38802;50.198;19.796;2023-06-22T07:53:05;13.60;;;12.40;;
52934;SDS011;38802;50.198;19.796;2023-06-22T07:55:33;14.80;;;13.50;;
52934;SDS011;38802;50.198;19.796;2023-06-22T07:58:01;15.10;;;13.90;;
52934;SDS011;38802;50.198;19.796;2023-06-22T08:00:29;16.00;;;12.60;;
52934;SDS011;38802;50.198;19.796;2023-06-22T08:02:57;12.80;;;11.90;;
52934;SDS011;38802;50.198;19.796;2023-06-22T08:05:25;14.30;;;13.10;;
52934;SDS011;38802;50.198;19.796;2023-06-22T08:07:53;14.80;;;12.90;;
52934;SDS011;38802;50.198;19.796;2023-06-22T08:10:22;13.40;;;12.30;;
52934;SDS011;38802;50.198;19.796;2023-06-22T08:12:51;12.60;;;11.50;;
52934;SDS011;38802;50.198;19.796;2023-06-22T08:15:20;12.60;;;11.60;;
52934;SDS011;38802;50.198;19.796;2023-06-22T08:17:49;12.90;;;11.70;;
52934;SDS011;38802;50.198;19.796;2023-06-22T08:20:30;11.20;;;10.10;;
52934;SDS011;38802;50.198;19.796;2023-06-22T08:22:58;12.80;;;11.60;;
52934;SDS011;38802;50.198;19.796;2023-06-22T08:25:33;11.10;;;10.20;;
52934;SDS011;38802;50.198;19.796;2023-06-22T08:28:02;12.90;;;11.80;;
52934;SDS011;38802;50.198;19.796;2023-06-22T08:30:31;12.40;;;11.30;;
52934;SDS011;38802;50.198;19.796;2023-06-22T08:32:59;10.80;;;9.80;;
52934;SDS011;38802;50.198;19.796;2023-06-22T08:35:27;11.80;;;10.90;;
52934;SDS011;38802;50.198;19.796;2023-06-22T08:37:56;11.40;;;10.50;;
52934;SDS011;38802;50.198;19.796;2023-06-22T08:40:27;11.40;;;10.50;;
52934;SDS011;38802;50.198;19.796;2023-06-22T08:42:57;10.20;;;9.20;;
52934;SDS011;38802;50.198;19.796;2023-06-22T08:45:30;9.80;;;8.90;;
52934;SDS011;38802;50.198;19.796;2023-06-22T08:47:59;10.80;;;9.90;;
52934;SDS011;38802;50.198;19.796;2023-06-22T08:50:27;10.70;;;9.90;;
52934;SDS011;38802;50.198;19.796;2023-06-22T08:52:56;11.20;;;10.30;;
52934;SDS011;38802;50.198;19.796;2023-06-22T08:55:25;11.60;;;10.60;;
52934;SDS011;38802;50.198;19.796;2023-06-22T08:57:57;10.70;;;9.90;;
52934;SDS011;38802;50.198;19.796;2023-06-22T09:00:25;11.20;;;10.20;;
52934;SDS011;38802;50.198;19.796;2023-06-22T09:02:58;10.00;;;9.30;;
52934;SDS011;38802;50.198;19.796;2023-06-22T09:05:27;10.30;;;9.50;;
52934;SDS011;38802;50.198;19.796;2023-06-22T09:07:57;10.60;;;9.60;;
52934;SDS011;38802;50.198;19.796;2023-06-22T09:10:29;12.10;;;10.30;;
52934;SDS011;38802;50.198;19.796;2023-06-22T09:12:59;11.00;;;10.20;;
52934;SDS011;38802;50.198;19.796;2023-06-22T09:15:28;10.30;;;9.30;;
52934;SDS011;38802;50.198;19.796;2023-06-22T09:18:13;9.60;;;8.90;;
52934;SDS011;38802;50.198;19.796;2023-06-22T09:20:47;9.20;;;8.40;;
52934;SDS011;38802;50.198;19.796;2023-06-22T09:23:20;9.20;;;8.50;;
52934;SDS011;38802;50.198;19.796;2023-06-22T09:25:51;8.80;;;8.10;;
52934;SDS011;38802;50.198;19.796;2023-06-22T09:28:25;11.00;;;8.80;;
52934;SDS011;38802;50.198;19.796;2023-06-22T09:30:56;9.40;;;8.70;;
52934;SDS011;38802;50.198;19.796;2023-06-22T09:33:30;8.10;;;7.50;;
52934;SDS011;38802;50.198;19.796;2023-06-22T09:36:00;7.60;;;6.90;;
52934;SDS011;38802;50.198;19.796;2023-06-22T09:38:28;12.20;;;7.80;;
52934;SDS011;38802;50.198;19.796;2023-06-22T09:40:56;9.00;;;7.80;;
52934;SDS011;38802;50.198;19.796;2023-06-22T09:43:25;7.60;;;6.90;;
52934;SDS011;38802;50.198;19.796;2023-06-22T09:45:53;7.70;;;6.90;;
52934;SDS011;38802;50.198;19.796;2023-06-22T09:48:23;7.80;;;7.20;;
52934;SDS011;38802;50.198;19.796;2023-06-22T09:51:00;7.70;;;7.10;;
52934;SDS011;38802;50.198;19.796;2023-06-22T09:53:28;8.40;;;7.70;;
52934;SDS011;38802;50.198;19.796;2023-06-22T09:55:56;8.20;;;7.60;;
52934;SDS011;38802;50.198;19.796;2023-06-22T09:58:24;7.80;;;7.00;;
52934;SDS011;38802;50.198;19.796;2023-06-22T10:00:53;7.70;;;7.00;;
52934;SDS011;38802;50.198;19.796;2023-06-22T10:03:22;8.00;;;7.30;;
52934;SDS011;38802;50.198;19.796;2023-06-22T10:05:51;7.90;;;7.30;;
52934;SDS011;38802;50.198;19.796;2023-06-22T10:08:19;7.60;;;7.10;;
52934;SDS011;38802;50.198;19.796;2023-06-22T10:10:46;6.80;;;6.30;;
52934;SDS011;38802;50.198;19.796;2023-06-22T10:13:14;7.30;;;6.70;;
52934;SDS011;38802;50.198;19.796;2023-06-22T10:15:42;7.40;;;6.80;;
52934;SDS011;38802;50.198;19.796;2023-06-22T10:18:13;6.70;;;6.20;;
52934;SDS011;38802;50.198;19.796;2023-06-22T10:20:41;6.80;;;6.10;;
52934;SDS011;38802;50.198;19.796;2023-06-22T10:23:10;6.80;;;6.30;;
52934;SDS011;38802;50.198;19.796;2023-06-22T10:25:37;6.40;;;5.90;;
52934;SDS011;38802;50.198;19.796;2023-06-22T10:28:05;7.50;;;6.40;;
52934;SDS011;38802;50.198;19.796;2023-06-22T10:30:33;6.90;;;6.30;;
52934;SDS011;38802;50.198;19.796;2023-06-22T10:33:02;6.80;;;6.20;;
52934;SDS011;38802;50.198;19.796;2023-06-22T10:35:30;7.00;;;6.50;;
52934;SDS011;38802;50.198;19.796;2023-06-22T10:37:58;9.20;;;6.90;;
52934;SDS011;38802;50.198;19.796;2023-06-22T10:40:26;7.30;;;6.70;;
52934;SDS011;38802;50.198;19.796;2023-06-22T10:42:54;7.80;;;7.10;;
52934;SDS011;38802;50.198;19.796;2023-06-22T10:45:22;6.50;;;6.00;;
52934;SDS011;38802;50.198;19.796;2023-06-22T10:47:50;6.60;;;6.10;;
52934;SDS011;38802;50.198;19.796;2023-06-22T10:50:19;7.40;;;6.80;;
52934;SDS011;38802;50.198;19.796;2023-06-22T10:52:48;8.10;;;6.00;;
52934;SDS011;38802;50.198;19.796;2023-06-22T10:55:18;6.40;;;5.90;;
52934;SDS011;38802;50.198;19.796;2023-06-22T10:57:46;6.40;;;5.80;;
52934;SDS011;38802;50.198;19.796;2023-06-22T11:00:17;6.90;;;6.30;;
52934;SDS011;38802;50.198;19.796;2023-06-22T11:02:56;6.90;;;6.20;;
52934;SDS011;38802;50.198;19.796;2023-06-22T11:05:26;6.50;;;5.80;;
52934;SDS011;38802;50.198;19.796;2023-06-22T11:07:55;8.50;;;6.60;;
52934;SDS011;38802;50.198;19.796;2023-06-22T11:10:23;6.30;;;5.70;;
52934;SDS011;38802;50.198;19.796;2023-06-22T11:12:51;6.50;;;6.00;;
52934;SDS011;38802;50.198;19.796;2023-06-22T11:15:21;6.30;;;5.70;;
52934;SDS011;38802;50.198;19.796;2023-06-22T11:17:49;7.90;;;6.70;;
52934;SDS011;38802;50.198;19.796;2023-06-22T11:20:17;6.70;;;6.10;;
52934;SDS011;38802;50.198;19.796;2023-06-22T11:22:45;6.90;;;6.30;;
52934;SDS011;38802;50.198;19.796;2023-06-22T11:25:15;6.80;;;6.20;;
52934;SDS011;38802;50.198;19.796;2023-06-22T11:27:43;6.90;;;6.30;;
52934;SDS011;38802;50.198;19.796;2023-06-22T11:30:11;6.40;;;5.70;;
52934;SDS011;38802;50.198;19.796;2023-06-22T11:32:39;9.00;;;6.90;;
52934;SDS011;38802;50.198;19.796;2023-06-22T11:35:08;7.20;;;6.60;;
52934;SDS011;38802;50.198;19.796;2023-06-22T11:37:38;6.70;;;6.20;;
52934;SDS011;38802;50.198;19.796;2023-06-22T11:40:06;8.90;;;6.30;;
52934;SDS011;38802;50.198;19.796;2023-06-22T11:42:36;6.60;;;6.00;;
52934;SDS011;38802;50.198;19.796;2023-06-22T11:45:05;8.70;;;6.40;;
52934;SDS011;38802;50.198;19.796;2023-06-22T11:59:50;6.40;;;6.00;;
52934;SDS011;38802;50.198;19.796;2023-06-22T12:02:18;6.50;;;6.00;;
52934;SDS011;38802;50.198;19.796;2023-06-22T12:04:46;6.40;;;5.80;;
52934;SDS011;38802;50.198;19.796;2023-06-22T12:07:14;6.90;;;6.20;;
52934;SDS011;38802;50.198;19.796;2023-06-22T12:09:45;6.50;;;5.80;;
52934;SDS011;38802;50.198;19.796;2023-06-22T12:12:13;6.50;;;6.10;;
52934;SDS011;38802;50.198;19.796;2023-06-22T12:14:41;6.90;;;6.40;;
52934;SDS011;38802;50.198;19.796;2023-06-22T12:17:09;6.20;;;5.60;;
52934;SDS011;38802;50.198;19.796;2023-06-22T12:19:37;7.20;;;6.70;;
52934;SDS011;38802;50.198;19.796;2023-06-22T12:22:06;7.60;;;6.00;;
52934;SDS011;38802;50.198;19.796;2023-06-22T12:24:38;6.70;;;6.10;;
52934;SDS011;38802;50.198;19.796;2023-06-22T12:27:06;6.30;;;5.80;;
52934;SDS011;38802;50.198;19.796;2023-06-22T12:29:34;6.30;;;5.60;;
52934;SDS011;38802;50.198;19.796;2023-06-22T12:32:02;6.10;;;5.70;;
52934;SDS011;38802;50.198;19.796;2023-06-22T12:34:31;6.10;;;5.60;;
52934;SDS011;38802;50.198;19.796;2023-06-22T12:36:59;6.20;;;5.60;;
52934;SDS011;38802;50.198;19.796;2023-06-22T12:39:27;6.10;;;5.70;;
52934;SDS011;38802;50.198;19.796;2023-06-22T12:41:55;6.00;;;5.60;;
52934;SDS011;38802;50.198;19.796;2023-06-22T12:44:23;6.70;;;6.20;;
52934;SDS011;38802;50.198;19.796;2023-06-22T12:46:51;6.80;;;6.30;;
52934;SDS011;38802;50.198;19.796;2023-06-22T12:49:19;6.30;;;5.60;;
52934;SDS011;38802;50.198;19.796;2023-06-22T12:51:47;6.50;;;6.10;;
52934;SDS011;38802;50.198;19.796;2023-06-22T12:54:16;8.30;;;6.30;;
52934;SDS011;38802;50.198;19.796;2023-06-22T12:56:44;7.00;;;6.50;;
52934;SDS011;38802;50.198;19.796;2023-06-22T12:59:12;6.70;;;6.20;;
52934;SDS011;38802;50.198;19.796;2023-06-22T13:01:40;7.90;;;6.20;;
52934;SDS011;38802;50.198;19.796;2023-06-22T13:04:08;6.40;;;5.90;;
52934;SDS011;38802;50.198;19.796;2023-06-22T13:06:38;6.80;;;6.10;;
52934;SDS011;38802;50.198;19.796;2023-06-22T13:09:07;7.10;;;5.60;;
52934;SDS011;38802;50.198;19.796;2023-06-22T13:11:47;6.50;;;6.00;;
52934;SDS011;38802;50.198;19.796;2023-06-22T13:14:16;6.30;;;5.70;;
52934;SDS011;38802;50.198;19.796;2023-06-22T13:16:44;6.60;;;6.00;;
52934;SDS011;38802;50.198;19.796;2023-06-22T13:19:12;6.30;;;5.80;;
52934;SDS011;38802;50.198;19.796;2023-06-22T13:21:40;6.50;;;6.00;;
52934;SDS011;38802;50.198;19.796;2023-06-22T13:24:08;6.60;;;5.90;;
52934;SDS011;38802;50.198;19.796;2023-06-22T13:26:36;7.20;;;6.60;;
52934;SDS011;38802;50.198;19.796;2023-06-22T13:29:05;7.10;;;6.60;;
52934;SDS011;38802;50.198;19.796;2023-06-22T13:31:33;6.50;;;5.90;;
52934;SDS011;38802;50.198;19.796;2023-06-22T13:37:02;7.10;;;6.50;;
52934;SDS011;38802;50.198;19.796;2023-06-22T13:39:30;6.50;;;6.00;;
52934;SDS011;38802;50.198;19.796;2023-06-22T13:41:58;8.60;;;6.60;;
52934;SDS011;38802;50.198;19.796;2023-06-22T13:44:27;9.30;;;6.80;;
52934;SDS011;38802;50.198;19.796;2023-06-22T13:46:57;7.50;;;6.90;;
52934;SDS011;38802;50.198;19.796;2023-06-22T13:49:26;7.10;;;6.60;;
52934;SDS011;38802;50.198;19.796;2023-06-22T13:55:59;7.10;;;6.50;;
52934;SDS011;38802;50.198;19.796;2023-06-22T13:58:29;7.30;;;6.40;;
52934;SDS011;38802;50.198;19.796;2023-06-22T14:00:57;9.80;;;6.70;;
52934;SDS011;38802;50.198;19.796;2023-06-22T14:03:25;7.30;;;6.70;;
52934;SDS011;38802;50.198;19.796;2023-06-22T14:05:54;7.40;;;6.90;;
52934;SDS011;38802;50.198;19.796;2023-06-22T14:08:24;7.60;;;7.10;;
52934;SDS011;38802;50.198;19.796;2023-06-22T14:11:10;7.20;;;6.70;;
52934;SDS011;38802;50.198;19.796;2023-06-22T14:13:39;7.50;;;6.90;;
52934;SDS011;38802;50.198;19.796;2023-06-22T14:16:23;7.80;;;7.20;;
52934;SDS011;38802;50.198;19.796;2023-06-22T14:18:51;7.70;;;7.20;;
52934;SDS011;38802;50.198;19.796;2023-06-22T14:21:21;7.80;;;7.20;;
52934;SDS011;38802;50.198;19.796;2023-06-22T14:23:50;9.40;;;6.80;;
52934;SDS011;38802;50.198;19.796;2023-06-22T14:26:22;7.70;;;7.20;;
52934;SDS011;38802;50.198;19.796;2023-06-22T14:28:51;8.10;;;7.30;;
52934;SDS011;38802;50.198;19.796;2023-06-22T14:31:21;8.00;;;7.10;;
52934;SDS011;38802;50.198;19.796;2023-06-22T14:33:50;7.30;;;6.70;;
52934;SDS011;38802;50.198;19.796;2023-06-22T14:36:18;6.90;;;6.30;;
52934;SDS011;38802;50.198;19.796;2023-06-22T14:38:46;7.70;;;7.10;;
52934;SDS011;38802;50.198;19.796;2023-06-22T14:41:14;7.60;;;7.00;;
52934;SDS011;38802;50.198;19.796;2023-06-22T14:43:46;8.90;;;6.90;;
52934;SDS011;38802;50.198;19.796;2023-06-22T14:46:15;8.30;;;7.60;;
52934;SDS011;38802;50.198;19.796;2023-06-22T14:48:46;7.50;;;6.80;;
52934;SDS011;38802;50.198;19.796;2023-06-22T14:51:15;7.20;;;6.50;;
52934;SDS011;38802;50.198;19.796;2023-06-22T14:53:45;7.70;;;7.00;;
52934;SDS011;38802;50.198;19.796;2023-06-22T14:56:13;7.80;;;7.20;;
52934;SDS011;38802;50.198;19.796;2023-06-22T14:58:54;6.60;;;6.10;;
52934;SDS011;38802;50.198;19.796;2023-06-22T15:01:22;7.20;;;6.50;;
52934;SDS011;38802;50.198;19.796;2023-06-22T15:03:50;6.70;;;6.20;;